createdAt,value
2017-03-04T00:00:25.121Z,22.38
2017-03-04T00:00:53.155Z,22.38
2017-03-04T00:01:21.237Z,22.38
2017-03-04T00:01:49.521Z,22.34
2017-03-04T00:02:17.740Z,22.38
2017-03-04T00:02:46.022Z,22.33
2017-03-04T00:03:14.211Z,22.31
2017-03-04T00:03:42.345Z,22.39
2017-03-04T00:04:10.539Z,22.36
2017-03-04T00:04:38.776Z,22.33
2017-03-04T00:05:06.917Z,22.36
2017-03-04T00:05:35.068Z,22.36
2017-03-04T00:06:03.275Z,22.38
2017-03-04T00:06:31.474Z,22.34
2017-03-04T00:06:59.543Z,22.39
2017-03-04T00:07:27.623Z,22.38
2017-03-04T00:07:55.789Z,22.39
2017-03-04T00:08:23.923Z,22.34
2017-03-04T00:08:52.066Z,22.34
2017-03-04T00:09:20.056Z,22.29
2017-03-04T00:09:48.292Z,22.26
2017-03-04T00:10:16.483Z,22.41
2017-03-04T00:10:44.482Z,22.36
2017-03-04T00:11:12.764Z,22.36
2017-03-04T00:11:41.006Z,22.38
2017-03-04T00:12:09.222Z,22.39
2017-03-04T00:12:37.559Z,22.29
2017-03-04T00:13:05.806Z,22.33
2017-03-04T00:13:34.037Z,22.36
2017-03-04T00:14:02.163Z,22.3
2017-03-04T00:14:30.375Z,22.38
2017-03-04T00:14:58.456Z,22.27
2017-03-04T00:15:26.717Z,22.39
2017-03-04T00:15:55.007Z,22.36
2017-03-04T00:16:23.118Z,22.29
2017-03-04T00:16:51.326Z,22.29
2017-03-04T00:17:19.505Z,22.29
2017-03-04T00:17:47.642Z,22.29
2017-03-04T00:18:15.819Z,22.34
2017-03-04T00:18:43.946Z,22.27
2017-03-04T00:19:12.134Z,22.36
2017-03-04T00:19:40.355Z,22.29
2017-03-04T00:20:08.661Z,22.33
2017-03-04T00:20:36.871Z,22.26
2017-03-04T00:21:05.084Z,22.26
2017-03-04T00:21:33.166Z,22.26
2017-03-04T00:22:01.400Z,22.24
2017-03-04T00:22:29.580Z,22.22
2017-03-04T00:22:57.690Z,22.23
2017-03-04T00:23:25.782Z,22.26
2017-03-04T00:23:53.873Z,22.27
2017-03-04T00:24:22.076Z,22.26
2017-03-04T00:24:50.181Z,22.26
2017-03-04T00:25:30.983Z,22.23
2017-03-04T00:25:59.156Z,22.18
2017-03-04T00:26:39.948Z,22.2
2017-03-04T00:27:08.095Z,22.15
2017-03-04T00:27:36.243Z,22.12
2017-03-04T00:28:04.533Z,22.12
2017-03-04T00:28:32.750Z,22.11
2017-03-04T00:29:00.856Z,21.96
2017-03-04T00:29:29.048Z,22.12
2017-03-04T00:29:57.307Z,22.09
2017-03-04T00:30:25.552Z,22.02
2017-03-04T00:30:53.675Z,22.07
2017-03-04T00:31:21.989Z,22.08
2017-03-04T00:31:50.061Z,22.05
2017-03-04T00:32:18.204Z,21.97
2017-03-04T00:32:46.145Z,21.96
2017-03-04T00:33:14.432Z,22
2017-03-04T00:33:42.630Z,22.04
2017-03-04T00:34:10.638Z,21.9
2017-03-04T00:34:38.916Z,21.83
2017-03-04T00:35:07.028Z,21.86
2017-03-04T00:35:35.110Z,21.89
2017-03-04T00:36:03.300Z,21.96
2017-03-04T00:36:31.607Z,21.86
2017-03-04T00:36:59.828Z,21.92
2017-03-04T00:37:28.019Z,21.92
2017-03-04T00:37:56.189Z,21.82
2017-03-04T00:38:24.392Z,21.85
2017-03-04T00:38:52.557Z,21.86
2017-03-04T00:39:20.714Z,21.9
2017-03-04T00:39:48.928Z,21.92
2017-03-04T00:40:17.129Z,21.85
2017-03-04T00:40:45.173Z,21.89
2017-03-04T00:41:13.280Z,21.86
2017-03-04T00:41:41.318Z,21.82
2017-03-04T00:42:09.419Z,21.82
2017-03-04T00:42:37.660Z,21.78
2017-03-04T00:43:05.936Z,21.85
2017-03-04T00:43:34.125Z,21.77
2017-03-04T00:44:02.381Z,21.85
2017-03-04T00:44:30.479Z,21.9
2017-03-04T00:44:58.661Z,21.8
2017-03-04T00:45:26.753Z,21.85
2017-03-04T00:45:54.969Z,21.9
2017-03-04T00:46:23.333Z,21.85
2017-03-04T00:46:51.452Z,21.93
2017-03-04T00:47:19.777Z,21.74
2017-03-04T00:47:47.883Z,21.9
2017-03-04T00:48:15.968Z,21.83
2017-03-04T00:48:44.153Z,21.82
2017-03-04T00:49:12.409Z,21.86
2017-03-04T00:49:40.732Z,21.89
2017-03-04T00:50:09.010Z,21.85
2017-03-04T00:50:37.135Z,21.86
2017-03-04T00:51:05.338Z,21.89
2017-03-04T00:51:33.622Z,21.89
2017-03-04T00:52:01.919Z,21.89
2017-03-04T00:52:30.160Z,21.8
2017-03-04T00:52:58.223Z,21.93
2017-03-04T00:53:27.221Z,21.89
2017-03-04T00:53:55.218Z,21.85
2017-03-04T00:54:23.427Z,21.93
2017-03-04T00:54:51.616Z,21.9
2017-03-04T00:55:19.685Z,21.9
2017-03-04T00:55:47.931Z,21.89
2017-03-04T00:56:16.024Z,21.83
2017-03-04T00:56:44.175Z,21.85
2017-03-04T00:57:12.174Z,21.86
2017-03-04T00:57:40.343Z,21.9
2017-03-04T00:58:08.592Z,21.85
2017-03-04T00:58:36.752Z,21.9
2017-03-04T00:59:04.976Z,21.89
2017-03-04T00:59:33.174Z,21.89
2017-03-04T01:00:01.378Z,21.85
2017-03-04T01:00:29.511Z,21.94
2017-03-04T01:00:57.695Z,21.92
2017-03-04T01:01:25.963Z,21.9
2017-03-04T01:01:54.198Z,21.9
2017-03-04T01:02:22.369Z,21.9
2017-03-04T01:02:50.485Z,21.86
2017-03-04T01:03:18.703Z,21.92
2017-03-04T01:03:46.611Z,21.83
2017-03-04T01:04:14.740Z,21.89
2017-03-04T01:04:43.055Z,21.89
2017-03-04T01:05:11.196Z,21.89
2017-03-04T01:05:39.431Z,21.78
2017-03-04T01:06:07.609Z,21.82
2017-03-04T01:06:35.926Z,21.86
2017-03-04T01:07:03.963Z,21.83
2017-03-04T01:07:32.295Z,21.93
2017-03-04T01:08:00.373Z,21.89
2017-03-04T01:08:28.677Z,21.86
2017-03-04T01:08:56.736Z,21.85
2017-03-04T01:09:24.736Z,21.9
2017-03-04T01:09:52.675Z,21.89
2017-03-04T01:10:20.976Z,21.86
2017-03-04T01:10:49.275Z,21.9
2017-03-04T01:11:17.427Z,21.78
2017-03-04T01:11:45.677Z,21.86
2017-03-04T01:12:13.867Z,21.92
2017-03-04T01:12:42.157Z,21.85
2017-03-04T01:13:10.426Z,21.94
2017-03-04T01:13:38.551Z,21.85
2017-03-04T01:14:06.776Z,21.83
2017-03-04T01:14:35.069Z,21.86
2017-03-04T01:15:03.120Z,21.82
2017-03-04T01:15:31.197Z,21.86
2017-03-04T01:15:59.479Z,21.9
2017-03-04T01:16:27.935Z,21.86
2017-03-04T01:16:56.125Z,21.85
2017-03-04T01:17:24.303Z,21.83
2017-03-04T01:17:52.486Z,21.92
2017-03-04T01:18:20.452Z,21.93
2017-03-04T01:18:48.683Z,21.86
2017-03-04T01:19:16.916Z,21.9
2017-03-04T01:19:44.978Z,21.85
2017-03-04T01:20:13.105Z,21.85
2017-03-04T01:20:41.355Z,21.86
2017-03-04T01:21:09.459Z,21.92
2017-03-04T01:21:37.606Z,21.89
2017-03-04T01:22:05.720Z,21.94
2017-03-04T01:22:33.861Z,21.94
2017-03-04T01:23:01.989Z,21.99
2017-03-04T01:23:30.046Z,21.97
2017-03-04T01:23:58.224Z,21.94
2017-03-04T01:24:26.444Z,22
2017-03-04T01:24:54.715Z,21.99
2017-03-04T01:25:22.804Z,22
2017-03-04T01:25:51.030Z,21.99
2017-03-04T01:26:19.239Z,22.02
2017-03-04T01:26:47.521Z,21.93
2017-03-04T01:27:15.661Z,22.02
2017-03-04T01:27:43.881Z,22
2017-03-04T01:28:12.005Z,21.96
2017-03-04T01:28:40.092Z,21.96
2017-03-04T01:29:08.330Z,21.97
2017-03-04T01:29:36.536Z,21.97
2017-03-04T01:30:04.681Z,22.02
2017-03-04T01:30:32.753Z,22
2017-03-04T01:31:00.828Z,21.9
2017-03-04T01:31:29.058Z,21.99
2017-03-04T01:31:57.361Z,22.02
2017-03-04T01:32:25.638Z,21.92
2017-03-04T01:32:53.805Z,22.04
2017-03-04T01:33:21.885Z,21.92
2017-03-04T01:33:50.174Z,21.92
2017-03-04T01:34:18.310Z,21.86
2017-03-04T01:34:46.529Z,21.99
2017-03-04T01:35:14.743Z,21.93
2017-03-04T01:35:43.022Z,21.9
2017-03-04T01:36:11.198Z,21.86
2017-03-04T01:36:39.391Z,21.94
2017-03-04T01:37:07.586Z,21.85
2017-03-04T01:37:35.737Z,21.83
2017-03-04T01:38:03.880Z,21.92
2017-03-04T01:38:32.063Z,21.9
2017-03-04T01:39:00.292Z,21.92
2017-03-04T01:39:28.485Z,21.93
2017-03-04T01:39:56.733Z,21.83
2017-03-04T01:40:25.054Z,21.92
2017-03-04T01:40:53.067Z,21.9
2017-03-04T01:41:21.310Z,21.85
2017-03-04T01:41:49.630Z,21.86
2017-03-04T01:42:17.907Z,21.89
2017-03-04T01:42:46.015Z,21.77
2017-03-04T01:43:14.169Z,21.86
2017-03-04T01:43:42.291Z,21.8
2017-03-04T01:44:10.284Z,21.85
2017-03-04T01:44:38.578Z,21.77
2017-03-04T01:45:06.965Z,21.76
2017-03-04T01:45:35.026Z,21.86
2017-03-04T01:46:03.205Z,21.77
2017-03-04T01:46:31.350Z,21.82
2017-03-04T01:46:59.550Z,21.78
2017-03-04T01:47:27.718Z,21.85
2017-03-04T01:47:55.850Z,21.73
2017-03-04T01:48:24.089Z,21.82
2017-03-04T01:48:52.337Z,21.83
2017-03-04T01:49:20.522Z,21.76
2017-03-04T01:49:48.729Z,21.83
2017-03-04T01:50:16.839Z,21.76
2017-03-04T01:50:44.930Z,21.73
2017-03-04T01:51:13.169Z,21.74
2017-03-04T01:51:41.122Z,21.82
2017-03-04T01:52:09.407Z,21.78
2017-03-04T01:52:37.526Z,21.68
2017-03-04T01:53:05.792Z,21.73
2017-03-04T01:53:33.890Z,21.73
2017-03-04T01:54:01.984Z,21.76
2017-03-04T01:54:30.029Z,21.77
2017-03-04T01:54:58.380Z,21.74
2017-03-04T01:55:26.659Z,21.74
2017-03-04T01:55:54.896Z,21.73
2017-03-04T01:56:23.198Z,21.74
2017-03-04T01:56:51.457Z,21.71
2017-03-04T01:57:19.737Z,21.73
2017-03-04T01:57:47.977Z,21.76
2017-03-04T01:58:16.262Z,21.78
2017-03-04T01:58:44.487Z,21.76
2017-03-04T01:59:12.785Z,21.68
2017-03-04T01:59:40.926Z,21.73
2017-03-04T02:00:08.983Z,21.68
2017-03-04T02:00:37.164Z,21.7
2017-03-04T02:01:05.396Z,21.73
2017-03-04T02:01:33.677Z,21.74
2017-03-04T02:02:01.948Z,21.71
2017-03-04T02:02:30.065Z,21.68
2017-03-04T02:02:58.247Z,21.7
2017-03-04T02:03:26.534Z,21.76
2017-03-04T02:03:54.618Z,21.77
2017-03-04T02:04:22.888Z,21.71
2017-03-04T02:04:51.192Z,21.73
2017-03-04T02:05:19.474Z,21.77
2017-03-04T02:05:47.595Z,21.77
2017-03-04T02:06:15.897Z,21.71
2017-03-04T02:06:44.009Z,21.71
2017-03-04T02:07:12.156Z,21.73
2017-03-04T02:07:40.420Z,21.74
2017-03-04T02:08:08.931Z,21.8
2017-03-04T02:08:37.128Z,21.7
2017-03-04T02:09:05.232Z,21.73
2017-03-04T02:09:33.395Z,21.7
2017-03-04T02:10:01.589Z,21.68
2017-03-04T02:10:29.839Z,21.74
2017-03-04T02:10:58.022Z,21.77
2017-03-04T02:11:26.496Z,21.73
2017-03-04T02:11:54.668Z,21.68
2017-03-04T02:12:22.952Z,21.77
2017-03-04T02:12:51.147Z,21.74
2017-03-04T02:13:19.232Z,21.67
2017-03-04T02:13:47.200Z,21.71
2017-03-04T02:14:15.427Z,21.68
2017-03-04T02:14:43.606Z,21.7
2017-03-04T02:15:11.707Z,21.77
2017-03-04T02:15:39.808Z,21.73
2017-03-04T02:16:08.083Z,21.66
2017-03-04T02:16:36.364Z,21.7
2017-03-04T02:17:04.571Z,21.7
2017-03-04T02:17:45.575Z,21.7
2017-03-04T02:18:32.877Z,21.7
2017-03-04T02:19:01.036Z,21.73
2017-03-04T02:19:29.054Z,21.71
2017-03-04T02:19:57.240Z,21.7
2017-03-04T02:20:25.371Z,21.68
2017-03-04T02:20:53.561Z,21.7
2017-03-04T02:21:21.657Z,21.66
2017-03-04T02:21:49.967Z,21.74
2017-03-04T02:22:17.995Z,21.61
2017-03-04T02:22:46.175Z,21.7
2017-03-04T02:23:14.358Z,21.73
2017-03-04T02:23:42.491Z,21.74
2017-03-04T02:24:10.638Z,21.67
2017-03-04T02:24:38.814Z,21.67
2017-03-04T02:25:07.111Z,21.74
2017-03-04T02:25:35.279Z,21.66
2017-03-04T02:26:03.477Z,21.73
2017-03-04T02:26:31.756Z,21.64
2017-03-04T02:26:59.980Z,21.64
2017-03-04T02:27:28.242Z,21.71
2017-03-04T02:27:56.243Z,21.71
2017-03-04T02:28:24.402Z,21.64
2017-03-04T02:28:52.658Z,21.68
2017-03-04T02:29:20.671Z,21.7
2017-03-04T02:29:48.862Z,21.61
2017-03-04T02:30:16.998Z,21.7
2017-03-04T02:30:45.189Z,21.62
2017-03-04T02:31:13.360Z,21.61
2017-03-04T02:31:41.675Z,21.62
2017-03-04T02:32:09.664Z,21.62
2017-03-04T02:32:37.737Z,21.66
2017-03-04T02:33:05.966Z,21.66
2017-03-04T02:33:34.049Z,21.73
2017-03-04T02:34:02.319Z,21.64
2017-03-04T02:34:30.348Z,21.61
2017-03-04T02:34:58.527Z,21.68
2017-03-04T02:35:26.802Z,21.59
2017-03-04T02:35:54.991Z,21.66
2017-03-04T02:36:23.103Z,21.64
2017-03-04T02:36:51.194Z,21.62
2017-03-04T02:37:19.570Z,21.66
2017-03-04T02:37:47.854Z,21.58
2017-03-04T02:38:16.059Z,21.53
2017-03-04T02:38:44.190Z,21.56
2017-03-04T02:39:12.247Z,21.64
2017-03-04T02:39:40.351Z,21.56
2017-03-04T02:40:08.500Z,21.62
2017-03-04T02:40:36.680Z,21.64
2017-03-04T02:41:04.832Z,21.59
2017-03-04T02:41:32.951Z,21.64
2017-03-04T02:42:01.039Z,21.64
2017-03-04T02:42:29.308Z,21.62
2017-03-04T02:42:57.503Z,21.61
2017-03-04T02:43:25.669Z,21.58
2017-03-04T02:43:53.926Z,21.58
2017-03-04T02:44:22.241Z,21.55
2017-03-04T02:44:50.443Z,21.61
2017-03-04T02:45:18.589Z,21.53
2017-03-04T02:45:46.747Z,21.56
2017-03-04T02:46:15.088Z,21.52
2017-03-04T02:46:43.278Z,21.55
2017-03-04T02:47:11.485Z,21.53
2017-03-04T02:47:39.566Z,21.53
2017-03-04T02:48:07.636Z,21.52
2017-03-04T02:48:35.783Z,21.53
2017-03-04T02:49:03.991Z,21.56
2017-03-04T02:49:31.931Z,21.55
2017-03-04T02:50:00.065Z,21.53
2017-03-04T02:50:28.187Z,21.53
2017-03-04T02:50:56.406Z,21.52
2017-03-04T02:51:24.485Z,21.52
2017-03-04T02:51:52.604Z,21.49
2017-03-04T02:52:20.979Z,21.58
2017-03-04T02:52:49.176Z,21.49
2017-03-04T02:53:17.342Z,21.52
2017-03-04T02:53:45.548Z,21.51
2017-03-04T02:54:13.647Z,21.49
2017-03-04T02:54:41.947Z,21.45
2017-03-04T02:55:10.171Z,21.46
2017-03-04T02:55:38.373Z,21.46
2017-03-04T02:56:06.572Z,21.49
2017-03-04T02:56:34.783Z,21.45
2017-03-04T02:57:02.988Z,21.45
2017-03-04T02:57:31.085Z,21.43
2017-03-04T02:57:59.339Z,21.46
2017-03-04T02:58:27.528Z,21.46
2017-03-04T02:58:55.621Z,21.41
2017-03-04T02:59:23.742Z,21.48
2017-03-04T02:59:51.828Z,21.46
2017-03-04T03:00:19.907Z,21.41
2017-03-04T03:00:48.003Z,21.43
2017-03-04T03:01:16.173Z,21.37
2017-03-04T03:01:44.344Z,21.41
2017-03-04T03:02:12.625Z,21.38
2017-03-04T03:02:40.976Z,21.43
2017-03-04T03:03:09.146Z,21.43
2017-03-04T03:03:37.268Z,21.38
2017-03-04T03:04:05.411Z,21.38
2017-03-04T03:04:33.509Z,21.41
2017-03-04T03:05:01.563Z,21.34
2017-03-04T03:05:29.774Z,21.43
2017-03-04T03:05:57.872Z,21.37
2017-03-04T03:06:26.068Z,21.4
2017-03-04T03:06:54.371Z,21.38
2017-03-04T03:07:22.573Z,21.4
2017-03-04T03:07:50.764Z,21.43
2017-03-04T03:08:18.972Z,21.4
2017-03-04T03:08:47.173Z,21.38
2017-03-04T03:09:15.470Z,21.38
2017-03-04T03:09:43.661Z,21.34
2017-03-04T03:10:11.779Z,21.45
2017-03-04T03:10:40.073Z,21.34
2017-03-04T03:11:08.254Z,21.37
2017-03-04T03:11:36.408Z,21.33
2017-03-04T03:12:04.505Z,21.33
2017-03-04T03:12:32.798Z,21.45
2017-03-04T03:13:01.127Z,21.46
2017-03-04T03:13:29.329Z,21.38
2017-03-04T03:13:57.630Z,21.37
2017-03-04T03:14:25.797Z,21.41
2017-03-04T03:14:54.027Z,21.36
2017-03-04T03:15:22.164Z,21.41
2017-03-04T03:15:50.263Z,21.34
2017-03-04T03:16:18.529Z,21.38
2017-03-04T03:16:46.851Z,21.34
2017-03-04T03:17:14.677Z,21.4
2017-03-04T03:17:43.052Z,21.37
2017-03-04T03:18:11.256Z,21.27
2017-03-04T03:18:39.358Z,21.25
2017-03-04T03:19:07.527Z,21.36
2017-03-04T03:19:35.683Z,21.33
2017-03-04T03:20:03.856Z,21.31
2017-03-04T03:20:32.038Z,21.33
2017-03-04T03:21:00.255Z,21.28
2017-03-04T03:21:28.336Z,21.33
2017-03-04T03:21:56.541Z,21.28
2017-03-04T03:22:24.712Z,21.33
2017-03-04T03:22:53.015Z,21.3
2017-03-04T03:23:21.110Z,21.3
2017-03-04T03:23:49.301Z,21.33
2017-03-04T03:24:17.478Z,21.28
2017-03-04T03:24:45.563Z,21.31
2017-03-04T03:25:13.722Z,21.25
2017-03-04T03:25:41.829Z,21.27
2017-03-04T03:26:10.087Z,21.33
2017-03-04T03:26:38.379Z,21.28
2017-03-04T03:27:06.409Z,21.27
2017-03-04T03:27:34.629Z,21.28
2017-03-04T03:28:02.773Z,21.25
2017-03-04T03:28:31.037Z,21.31
2017-03-04T03:28:59.263Z,21.27
2017-03-04T03:29:27.245Z,21.28
2017-03-04T03:29:55.304Z,21.3
2017-03-04T03:30:23.438Z,21.31
2017-03-04T03:30:51.628Z,21.3
2017-03-04T03:31:19.823Z,21.3
2017-03-04T03:31:47.822Z,21.28
2017-03-04T03:32:15.896Z,21.25
2017-03-04T03:32:44.324Z,21.27
2017-03-04T03:33:12.439Z,21.22
2017-03-04T03:33:40.602Z,21.27
2017-03-04T03:34:09.638Z,21.3
2017-03-04T03:34:37.665Z,21.28
2017-03-04T03:35:05.943Z,21.25
2017-03-04T03:35:34.027Z,21.23
2017-03-04T03:36:02.262Z,21.22
2017-03-04T03:36:30.576Z,21.27
2017-03-04T03:36:58.866Z,21.27
2017-03-04T03:37:26.970Z,21.22
2017-03-04T03:37:55.074Z,21.27
2017-03-04T03:38:23.176Z,21.25
2017-03-04T03:38:51.357Z,21.22
2017-03-04T03:39:19.371Z,21.25
2017-03-04T03:39:47.638Z,21.23
2017-03-04T03:40:15.903Z,21.27
2017-03-04T03:40:43.954Z,21.23
2017-03-04T03:41:12.147Z,21.3
2017-03-04T03:41:40.312Z,21.22
2017-03-04T03:42:08.506Z,21.23
2017-03-04T03:42:36.780Z,21.31
2017-03-04T03:43:04.969Z,21.3
2017-03-04T03:43:33.102Z,21.21
2017-03-04T03:44:01.392Z,21.27
2017-03-04T03:44:29.465Z,21.21
2017-03-04T03:44:57.730Z,21.27
2017-03-04T03:45:25.948Z,21.25
2017-03-04T03:45:54.274Z,21.22
2017-03-04T03:46:22.354Z,21.22
2017-03-04T03:46:50.657Z,21.27
2017-03-04T03:47:18.926Z,21.27
2017-03-04T03:47:47.116Z,21.25
2017-03-04T03:48:15.241Z,21.27
2017-03-04T03:48:43.429Z,21.31
2017-03-04T03:49:11.450Z,21.22
2017-03-04T03:49:39.744Z,21.3
2017-03-04T03:50:07.956Z,21.27
2017-03-04T03:50:36.103Z,21.25
2017-03-04T03:51:04.252Z,21.22
2017-03-04T03:51:32.420Z,21.27
2017-03-04T03:52:00.599Z,21.23
2017-03-04T03:52:28.828Z,21.22
2017-03-04T03:52:57.150Z,21.28
2017-03-04T03:53:25.269Z,21.27
2017-03-04T03:53:53.323Z,21.18
2017-03-04T03:54:21.958Z,21.3
2017-03-04T03:54:50.225Z,21.23
2017-03-04T03:55:18.399Z,21.28
2017-03-04T03:55:46.582Z,21.16
2017-03-04T03:56:14.723Z,21.25
2017-03-04T03:56:42.981Z,21.16
2017-03-04T03:57:11.276Z,21.12
2017-03-04T03:57:39.249Z,21.15
2017-03-04T03:58:07.536Z,21.16
2017-03-04T03:58:35.589Z,21.12
2017-03-04T03:59:03.798Z,21.15
2017-03-04T03:59:32.005Z,21.15
2017-03-04T04:00:00.180Z,21.18
2017-03-04T04:00:28.462Z,21.16
2017-03-04T04:00:56.778Z,21.12
2017-03-04T04:01:24.962Z,21.15
2017-03-04T04:01:53.251Z,21.15
2017-03-04T04:02:21.359Z,21.21
2017-03-04T04:02:49.610Z,21.13
2017-03-04T04:03:17.817Z,21.15
2017-03-04T04:03:46.045Z,21.16
2017-03-04T04:04:14.245Z,21.16
2017-03-04T04:04:42.539Z,21.16
2017-03-04T04:05:10.833Z,21.08
2017-03-04T04:05:38.954Z,21.13
2017-03-04T04:06:07.224Z,21.12
2017-03-04T04:06:35.308Z,21.12
2017-03-04T04:07:03.478Z,21.13
2017-03-04T04:07:31.693Z,21.09
2017-03-04T04:07:59.869Z,21.12
2017-03-04T04:08:28.060Z,21.08
2017-03-04T04:08:56.233Z,21.13
2017-03-04T04:09:24.359Z,21.09
2017-03-04T04:09:52.324Z,21.06
2017-03-04T04:10:20.577Z,21
2017-03-04T04:10:48.659Z,21.08
2017-03-04T04:11:16.922Z,20.98
2017-03-04T04:11:45.175Z,21.09
2017-03-04T04:12:13.348Z,20.98
2017-03-04T04:12:41.472Z,20.98
2017-03-04T04:13:09.694Z,20.98
2017-03-04T04:13:37.918Z,21.01
2017-03-04T04:14:06.213Z,21.03
2017-03-04T04:14:34.147Z,21.01
2017-03-04T04:15:02.243Z,21.06
2017-03-04T04:15:30.293Z,21
2017-03-04T04:15:58.542Z,21.03
2017-03-04T04:16:26.659Z,20.98
2017-03-04T04:16:54.659Z,20.96
2017-03-04T04:17:22.936Z,20.96
2017-03-04T04:17:51.189Z,21.01
2017-03-04T04:18:19.303Z,21.03
2017-03-04T04:18:47.555Z,21.01
2017-03-04T04:19:15.816Z,20.96
2017-03-04T04:19:43.920Z,21.03
2017-03-04T04:20:12.204Z,20.96
2017-03-04T04:20:40.469Z,21
2017-03-04T04:21:08.465Z,20.98
2017-03-04T04:21:36.660Z,21
2017-03-04T04:22:04.844Z,21.04
2017-03-04T04:22:33.089Z,20.98
2017-03-04T04:23:01.461Z,21.01
2017-03-04T04:23:29.644Z,21.03
2017-03-04T04:23:57.793Z,21.01
2017-03-04T04:24:26.060Z,21.03
2017-03-04T04:24:54.279Z,20.98
2017-03-04T04:25:22.446Z,21.03
2017-03-04T04:25:50.697Z,20.96
2017-03-04T04:26:18.876Z,21
2017-03-04T04:26:47.065Z,21.01
2017-03-04T04:27:15.188Z,21
2017-03-04T04:27:43.227Z,21.01
2017-03-04T04:28:11.533Z,21.06
2017-03-04T04:28:39.675Z,21
2017-03-04T04:29:07.740Z,21.01
2017-03-04T04:29:35.858Z,20.98
2017-03-04T04:30:04.162Z,20.96
2017-03-04T04:30:32.255Z,20.93
2017-03-04T04:31:00.515Z,20.98
2017-03-04T04:31:28.494Z,20.98
2017-03-04T04:31:56.645Z,20.98
2017-03-04T04:32:24.830Z,20.98
2017-03-04T04:32:52.989Z,20.98
2017-03-04T04:33:21.172Z,21.04
2017-03-04T04:33:49.345Z,20.96
2017-03-04T04:34:17.565Z,20.98
2017-03-04T04:34:45.824Z,21
2017-03-04T04:35:14.096Z,21.04
2017-03-04T04:35:42.354Z,21.04
2017-03-04T04:36:10.504Z,21
2017-03-04T04:36:38.614Z,21.03
2017-03-04T04:37:06.822Z,20.97
2017-03-04T04:37:34.934Z,21.08
2017-03-04T04:38:03.105Z,21
2017-03-04T04:38:31.264Z,21.01
2017-03-04T04:38:59.508Z,21.03
2017-03-04T04:39:27.593Z,21.06
2017-03-04T04:39:55.643Z,20.97
2017-03-04T04:40:23.854Z,21.01
2017-03-04T04:40:52.133Z,21.04
2017-03-04T04:41:20.285Z,21.03
2017-03-04T04:41:48.412Z,21.09
2017-03-04T04:42:16.514Z,21.06
2017-03-04T04:42:44.823Z,20.98
2017-03-04T04:43:13.192Z,21.03
2017-03-04T04:43:41.322Z,21.03
2017-03-04T04:44:09.359Z,21.01
2017-03-04T04:44:37.579Z,21.06
2017-03-04T04:45:05.826Z,21.09
2017-03-04T04:45:34.005Z,21.06
2017-03-04T04:46:02.190Z,21.09
2017-03-04T04:46:30.362Z,21.11
2017-03-04T04:46:58.630Z,21.15
2017-03-04T04:47:26.813Z,21.08
2017-03-04T04:47:54.958Z,21.11
2017-03-04T04:48:23.142Z,21.11
2017-03-04T04:48:51.327Z,21.08
2017-03-04T04:49:19.590Z,21.08
2017-03-04T04:49:47.645Z,21.09
2017-03-04T04:50:15.828Z,21.12
2017-03-04T04:50:43.959Z,21.15
2017-03-04T04:51:12.238Z,21.11
2017-03-04T04:51:40.383Z,21.11
2017-03-04T04:52:08.624Z,21.04
2017-03-04T04:52:36.669Z,21.04
2017-03-04T04:53:04.926Z,21.12
2017-03-04T04:53:33.157Z,21.09
2017-03-04T04:54:01.356Z,21.12
2017-03-04T04:54:29.602Z,21.09
2017-03-04T04:54:57.678Z,21.11
2017-03-04T04:55:25.880Z,21.09
2017-03-04T04:55:54.090Z,21.11
2017-03-04T04:56:22.259Z,21.09
2017-03-04T04:56:50.445Z,21.09
2017-03-04T04:57:18.589Z,21.15
2017-03-04T04:57:46.605Z,21.09
2017-03-04T04:58:14.902Z,21.08
2017-03-04T04:58:43.084Z,21.09
2017-03-04T04:59:11.282Z,21.08
2017-03-04T04:59:39.203Z,21.13
2017-03-04T05:00:07.177Z,21.09
2017-03-04T05:00:35.383Z,21.11
2017-03-04T05:01:03.489Z,21.08
2017-03-04T05:01:31.704Z,21.01
2017-03-04T05:02:00.015Z,21.13
2017-03-04T05:02:28.076Z,21.12
2017-03-04T05:02:56.287Z,21.13
2017-03-04T05:03:24.782Z,21.09
2017-03-04T05:03:52.803Z,21.12
2017-03-04T05:04:21.061Z,21.21
2017-03-04T05:04:49.252Z,21.18
2017-03-04T05:05:17.516Z,21.09
2017-03-04T05:05:45.708Z,21.09
2017-03-04T05:06:13.810Z,21.22
2017-03-04T05:06:42.077Z,21.12
2017-03-04T05:07:10.257Z,21.15
2017-03-04T05:07:38.525Z,21.19
2017-03-04T05:08:06.669Z,21.15
2017-03-04T05:08:34.953Z,21.18
2017-03-04T05:09:03.287Z,21.16
2017-03-04T05:09:31.523Z,21.19
2017-03-04T05:09:59.821Z,21.11
2017-03-04T05:10:28.015Z,21.16
2017-03-04T05:10:56.240Z,21.19
2017-03-04T05:11:24.482Z,21.21
2017-03-04T05:11:52.646Z,21.22
2017-03-04T05:12:20.892Z,21.16
2017-03-04T05:12:49.006Z,21.16
2017-03-04T05:13:17.323Z,21.16
2017-03-04T05:13:45.463Z,21.12
2017-03-04T05:14:13.485Z,21.15
2017-03-04T05:14:41.767Z,21.21
2017-03-04T05:15:09.951Z,21.18
2017-03-04T05:15:38.090Z,21.15
2017-03-04T05:16:06.080Z,21.11
2017-03-04T05:16:34.235Z,21.16
2017-03-04T05:17:02.428Z,21.16
2017-03-04T05:17:30.493Z,21.15
2017-03-04T05:17:58.453Z,21.18
2017-03-04T05:18:26.787Z,21.13
2017-03-04T05:18:54.973Z,21.13
2017-03-04T05:19:23.187Z,21.19
2017-03-04T05:19:51.356Z,21.13
2017-03-04T05:20:19.650Z,21.15
2017-03-04T05:20:47.841Z,21.13
2017-03-04T05:21:16.017Z,21.12
2017-03-04T05:21:44.311Z,21.09
2017-03-04T05:22:12.594Z,21.11
2017-03-04T05:22:40.673Z,21.11
2017-03-04T05:23:08.784Z,21.06
2017-03-04T05:23:36.912Z,21.08
2017-03-04T05:24:05.044Z,21.11
2017-03-04T05:24:33.160Z,21.01
2017-03-04T05:25:01.332Z,21.09
2017-03-04T05:25:29.430Z,21.04
2017-03-04T05:25:57.595Z,21.16
2017-03-04T05:26:25.604Z,21.06
2017-03-04T05:26:53.794Z,21.15
2017-03-04T05:27:21.906Z,21.08
2017-03-04T05:27:50.046Z,21.13
2017-03-04T05:28:18.339Z,21
2017-03-04T05:28:46.632Z,21.06
2017-03-04T05:29:14.700Z,21
2017-03-04T05:29:42.874Z,21.08
2017-03-04T05:30:11.049Z,20.97
2017-03-04T05:30:39.351Z,21.04
2017-03-04T05:31:07.612Z,21.06
2017-03-04T05:31:35.565Z,21.13
2017-03-04T05:32:03.779Z,21.01
2017-03-04T05:32:32.044Z,21
2017-03-04T05:33:00.207Z,21.08
2017-03-04T05:33:28.318Z,21.11
2017-03-04T05:33:56.582Z,21.04
2017-03-04T05:34:24.793Z,21
2017-03-04T05:34:53.021Z,21.04
2017-03-04T05:35:21.282Z,21.01
2017-03-04T05:35:50.272Z,21.06
2017-03-04T05:36:18.437Z,21.09
2017-03-04T05:36:53.695Z,20.98
2017-03-04T05:37:21.934Z,21.12
2017-03-04T05:37:50.027Z,21.06
2017-03-04T05:38:18.174Z,21.08
2017-03-04T05:38:46.433Z,21.01
2017-03-04T05:39:14.650Z,21.12
2017-03-04T05:39:42.885Z,21
2017-03-04T05:40:11.039Z,20.96
2017-03-04T05:40:39.189Z,20.94
2017-03-04T05:41:07.327Z,21.04
2017-03-04T05:41:35.589Z,21.01
2017-03-04T05:42:03.840Z,21.03
2017-03-04T05:42:32.116Z,20.98
2017-03-04T05:43:00.251Z,21.03
2017-03-04T05:43:28.412Z,21.06
2017-03-04T05:43:56.578Z,20.98
2017-03-04T05:44:24.614Z,20.98
2017-03-04T05:44:52.863Z,21.04
2017-03-04T05:45:20.941Z,21.03
2017-03-04T05:45:49.199Z,21.01
2017-03-04T05:46:17.450Z,21.03
2017-03-04T05:46:45.690Z,21.03
2017-03-04T05:47:13.838Z,21.01
2017-03-04T05:47:42.104Z,20.96
2017-03-04T05:48:10.293Z,21
2017-03-04T05:48:38.572Z,21.06
2017-03-04T05:49:06.889Z,21.11
2017-03-04T05:49:35.025Z,20.98
2017-03-04T05:50:03.080Z,21.08
2017-03-04T05:50:31.082Z,21.03
2017-03-04T05:50:59.340Z,21
2017-03-04T05:51:27.415Z,20.98
2017-03-04T05:51:55.544Z,21
2017-03-04T05:52:23.845Z,21
2017-03-04T05:52:52.030Z,21
2017-03-04T05:53:19.969Z,21.08
2017-03-04T05:53:48.234Z,21.08
2017-03-04T05:54:16.503Z,21.03
2017-03-04T05:54:44.654Z,21.03
2017-03-04T05:55:12.848Z,21
2017-03-04T05:55:41.023Z,20.98
2017-03-04T05:56:09.137Z,21
2017-03-04T05:56:37.318Z,21.13
2017-03-04T05:57:05.600Z,20.96
2017-03-04T05:57:33.643Z,21
2017-03-04T05:58:01.842Z,20.98
2017-03-04T05:58:29.947Z,21.03
2017-03-04T05:58:58.103Z,21
2017-03-04T05:59:26.404Z,20.98
2017-03-04T05:59:54.689Z,21.01
2017-03-04T06:00:22.848Z,20.96
2017-03-04T06:00:51.067Z,20.96
2017-03-04T06:01:19.253Z,21.03
2017-03-04T06:01:47.472Z,20.98
2017-03-04T06:02:15.609Z,21.08
2017-03-04T06:02:43.869Z,21.04
2017-03-04T06:03:12.120Z,21.08
2017-03-04T06:03:40.327Z,20.98
2017-03-04T06:04:08.537Z,21.04
2017-03-04T06:04:36.622Z,21.04
2017-03-04T06:05:04.800Z,21.04
2017-03-04T06:05:33.003Z,21.06
2017-03-04T06:06:01.256Z,21
2017-03-04T06:06:29.470Z,20.96